sensor_id;sensor_type;location;lat;lon;timestamp;temperature;humidity
16267;DHT22;8241;48.786;9.250;2023-05-10T00:00:56;15.20;99.90
16267;DHT22;8241;48.786;9.250;2023-05-10T00:03:23;15.20;99.90
16267;DHT22;8241;48.786;9.250;2023-05-10T00:05:51;15.20;99.90
16267;DHT22;8241;48.786;9.250;2023-05-10T00:08:18;15.20;99.90
16267;DHT22;8241;48.786;9.250;2023-05-10T00:10:46;15.20;99.90
16267;DHT22;8241;48.786;9.250;2023-05-10T00:13:14;15.10;99.90
16267;DHT22;8241;48.786;9.250;2023-05-10T00:15:42;15.10;99.90
16267;DHT22;8241;48.786;9.250;2023-05-10T00:18:09;15.10;99.90
16267;DHT22;8241;48.786;9.250;2023-05-10T00:20:36;15.10;99.90
16267;DHT22;8241;48.786;9.250;2023-05-10T00:23:08;15.10;99.90
16267;DHT22;8241;48.786;9.250;2023-05-10T00:25:35;15.10;99.90
16267;DHT22;8241;48.786;9.250;2023-05-10T00:28:02;15.10;99.90
16267;DHT22;8241;48.786;9.250;2023-05-10T00:30:29;15.00;99.90
16267;DHT22;8241;48.786;9.250;2023-05-10T00:32:56;15.10;99.90
16267;DHT22;8241;48.786;9.250;2023-05-10T00:35:32;15.00;99.90
16267;DHT22;8241;48.786;9.250;2023-05-10T00:37:59;14.90;99.90
16267;DHT22;8241;48.786;9.250;2023-05-10T00:40:32;14.90;99.90
16267;DHT22;8241;48.786;9.250;2023-05-10T00:43:16;14.80;99.90
16267;DHT22;8241;48.786;9.250;2023-05-10T00:45:52;14.80;99.90
16267;DHT22;8241;48.786;9.250;2023-05-10T00:48:20;14.70;99.90
16267;DHT22;8241;48.786;9.250;2023-05-10T00:50:51;14.70;99.90
16267;DHT22;8241;48.786;9.250;2023-05-10T00:53:21;14.70;99.90
16267;DHT22;8241;48.786;9.250;2023-05-10T00:56:05;14.60;99.90
16267;DHT22;8241;48.786;9.250;2023-05-10T00:58:38;14.60;99.90
16267;DHT22;8241;48.786;9.250;2023-05-10T01:01:06;14.50;99.90
16267;DHT22;8241;48.786;9.250;2023-05-10T01:03:39;14.40;99.90
16267;DHT22;8241;48.786;9.250;2023-05-10T01:06:11;14.50;99.90
16267;DHT22;8241;48.786;9.250;2023-05-10T01:08:39;14.40;99.90
16267;DHT22;8241;48.786;9.250;2023-05-10T01:11:14;14.40;99.90
16267;DHT22;8241;48.786;9.250;2023-05-10T01:13:52;14.40;99.90
16267;DHT22;8241;48.786;9.250;2023-05-10T01:16:36;14.40;99.90
16267;DHT22;8241;48.786;9.250;2023-05-10T01:19:04;14.40;99.90
16267;DHT22;8241;48.786;9.250;2023-05-10T01:21:37;14.40;99.90
16267;DHT22;8241;48.786;9.250;2023-05-10T01:30:56;14.30;99.90
16267;DHT22;8241;48.786;9.250;2023-05-10T01:33:36;14.40;99.90
16267;DHT22;8241;48.786;9.250;2023-05-10T01:36:13;14.30;99.90
16267;DHT22;8241;48.786;9.250;2023-05-10T01:38:50;14.30;99.90
16267;DHT22;8241;48.786;9.250;2023-05-10T01:41:19;14.30;99.90
16267;DHT22;8241;48.786;9.250;2023-05-10T01:44:01;14.30;99.90
16267;DHT22;8241;48.786;9.250;2023-05-10T01:47:07;14.30;99.90
16267;DHT22;8241;48.786;9.250;2023-05-10T01:49:41;14.30;99.90
16267;DHT22;8241;48.786;9.250;2023-05-10T01:52:21;14.20;99.90
16267;DHT22;8241;48.786;9.250;2023-05-10T01:54:55;14.20;99.90
16267;DHT22;8241;48.786;9.250;2023-05-10T01:57:26;14.20;99.90
16267;DHT22;8241;48.786;9.250;2023-05-10T01:59:55;14.20;99.90
16267;DHT22;8241;48.786;9.250;2023-05-10T02:02:24;14.20;99.90
16267;DHT22;8241;48.786;9.250;2023-05-10T02:04:53;14.20;99.90
16267;DHT22;8241;48.786;9.250;2023-05-10T02:07:22;14.30;99.90
16267;DHT22;8241;48.786;9.250;2023-05-10T02:09:52;14.20;99.90
16267;DHT22;8241;48.786;9.250;2023-05-10T02:12:20;14.30;99.90
16267;DHT22;8241;48.786;9.250;2023-05-10T02:14:51;14.10;99.90
16267;DHT22;8241;48.786;9.250;2023-05-10T02:17:19;14.20;99.90
16267;DHT22;8241;48.786;9.250;2023-05-10T02:19:49;14.20;99.90
16267;DHT22;8241;48.786;9.250;2023-05-10T02:22:20;14.20;99.90
16267;DHT22;8241;48.786;9.250;2023-05-10T02:24:48;14.10;99.90
16267;DHT22;8241;48.786;9.250;2023-05-10T02:27:17;14.20;99.90
16267;DHT22;8241;48.786;9.250;2023-05-10T02:29:46;14.20;99.90
16267;DHT22;8241;48.786;9.250;2023-05-10T02:32:28;14.10;99.90
16267;DHT22;8241;48.786;9.250;2023-05-10T02:34:56;14.10;99.90
16267;DHT22;8241;48.786;9.250;2023-05-10T02:37:29;14.10;99.90
16267;DHT22;8241;48.786;9.250;2023-05-10T02:39:56;14.00;99.90
16267;DHT22;8241;48.786;9.250;2023-05-10T02:42:27;13.90;99.90
16267;DHT22;8241;48.786;9.250;2023-05-10T02:44:56;13.90;99.90
16267;DHT22;8241;48.786;9.250;2023-05-10T02:47:26;13.90;99.90
16267;DHT22;8241;48.786;9.250;2023-05-10T02:49:53;13.80;99.90
16267;DHT22;8241;48.786;9.250;2023-05-10T02:52:24;13.80;99.90
16267;DHT22;8241;48.786;9.250;2023-05-10T02:55:00;13.80;99.90
16267;DHT22;8241;48.786;9.250;2023-05-10T02:57:33;13.80;99.90
16267;DHT22;8241;48.786;9.250;2023-05-10T03:00:01;13.90;99.90
16267;DHT22;8241;48.786;9.250;2023-05-10T03:02:28;13.90;99.90
16267;DHT22;8241;48.786;9.250;2023-05-10T03:04:56;13.90;99.90
16267;DHT22;8241;48.786;9.250;2023-05-10T03:07:23;13.90;99.90
16267;DHT22;8241;48.786;9.250;2023-05-10T03:09:51;13.80;99.90
16267;DHT22;8241;48.786;9.250;2023-05-10T03:12:27;13.80;99.90
16267;DHT22;8241;48.786;9.250;2023-05-10T03:15:03;13.80;99.90
16267;DHT22;8241;48.786;9.250;2023-05-10T03:17:36;13.80;99.90
16267;DHT22;8241;48.786;9.250;2023-05-10T03:20:10;13.80;99.90
16267;DHT22;8241;48.786;9.250;2023-05-10T03:22:42;13.80;99.90
16267;DHT22;8241;48.786;9.250;2023-05-10T03:25:12;13.80;99.90
16267;DHT22;8241;48.786;9.250;2023-05-10T03:27:44;13.80;99.90
16267;DHT22;8241;48.786;9.250;2023-05-10T03:30:12;13.80;99.90
16267;DHT22;8241;48.786;9.250;2023-05-10T03:32:40;13.80;99.90
16267;DHT22;8241;48.786;9.250;2023-05-10T03:35:08;13.80;99.90
16267;DHT22;8241;48.786;9.250;2023-05-10T03:37:35;13.80;99.90
16267;DHT22;8241;48.786;9.250;2023-05-10T03:40:03;13.80;99.90
16267;DHT22;8241;48.786;9.250;2023-05-10T03:42:33;13.90;99.90
16267;DHT22;8241;48.786;9.250;2023-05-10T03:45:01;13.90;99.90
16267;DHT22;8241;48.786;9.250;2023-05-10T03:47:28;14.00;99.90
16267;DHT22;8241;48.786;9.250;2023-05-10T03:49:58;14.00;99.90
16267;DHT22;8241;48.786;9.250;2023-05-10T03:52:25;14.00;99.90
16267;DHT22;8241;48.786;9.250;2023-05-10T03:54:53;13.90;99.90
16267;DHT22;8241;48.786;9.250;2023-05-10T03:57:20;13.90;99.90
16267;DHT22;8241;48.786;9.250;2023-05-10T03:59:48;13.90;99.90
16267;DHT22;8241;48.786;9.250;2023-05-10T04:02:18;14.00;99.90
16267;DHT22;8241;48.786;9.250;2023-05-10T04:05:16;14.00;99.90
16267;DHT22;8241;48.786;9.250;2023-05-10T04:07:43;14.00;99.90
16267;DHT22;8241;48.786;9.250;2023-05-10T04:10:11;14.00;99.90
16267;DHT22;8241;48.786;9.250;2023-05-10T04:12:38;14.00;99.90
16267;DHT22;8241;48.786;9.250;2023-05-10T04:15:06;13.90;99.90
16267;DHT22;8241;48.786;9.250;2023-05-10T04:17:34;13.90;99.90
16267;DHT22;8241;48.786;9.250;2023-05-10T04:20:01;13.90;99.90
16267;DHT22;8241;48.786;9.250;2023-05-10T04:22:29;13.90;99.90
16267;DHT22;8241;48.786;9.250;2023-05-10T04:24:56;13.80;99.90
16267;DHT22;8241;48.786;9.250;2023-05-10T04:27:30;13.80;99.90
16267;DHT22;8241;48.786;9.250;2023-05-10T04:29:57;13.90;99.90
16267;DHT22;8241;48.786;9.250;2023-05-10T04:32:24;13.90;99.90
16267;DHT22;8241;48.786;9.250;2023-05-10T04:34:52;14.00;99.90
16267;DHT22;8241;48.786;9.250;2023-05-10T04:37:19;14.00;99.90
16267;DHT22;8241;48.786;9.250;2023-05-10T04:39:47;14.00;99.90
16267;DHT22;8241;48.786;9.250;2023-05-10T04:42:14;14.00;99.90
16267;DHT22;8241;48.786;9.250;2023-05-10T04:44:41;14.00;99.90
16267;DHT22;8241;48.786;9.250;2023-05-10T04:47:09;14.10;99.90
16267;DHT22;8241;48.786;9.250;2023-05-10T04:49:37;14.00;99.90
16267;DHT22;8241;48.786;9.250;2023-05-10T04:52:05;14.00;99.90
16267;DHT22;8241;48.786;9.250;2023-05-10T04:54:34;14.00;99.90
16267;DHT22;8241;48.786;9.250;2023-05-10T04:57:01;14.00;99.90
16267;DHT22;8241;48.786;9.250;2023-05-10T04:59:29;14.00;99.90
16267;DHT22;8241;48.786;9.250;2023-05-10T05:01:57;14.10;99.90
16267;DHT22;8241;48.786;9.250;2023-05-10T05:04:24;14.10;99.90
16267;DHT22;8241;48.786;9.250;2023-05-10T05:06:51;14.20;99.90
16267;DHT22;8241;48.786;9.250;2023-05-10T05:09:38;14.30;99.90
16267;DHT22;8241;48.786;9.250;2023-05-10T05:12:17;14.30;99.90
16267;DHT22;8241;48.786;9.250;2023-05-10T05:14:44;14.40;99.90
16267;DHT22;8241;48.786;9.250;2023-05-10T05:17:18;14.50;99.90
16267;DHT22;8241;48.786;9.250;2023-05-10T05:19:45;14.60;99.90
16267;DHT22;8241;48.786;9.250;2023-05-10T05:22:24;14.60;99.90
16267;DHT22;8241;48.786;9.250;2023-05-10T05:24:56;14.70;99.90
16267;DHT22;8241;48.786;9.250;2023-05-10T05:34:31;14.90;99.90
16267;DHT22;8241;48.786;9.250;2023-05-10T05:36:59;14.90;99.90
16267;DHT22;8241;48.786;9.250;2023-05-10T05:39:29;14.90;99.90
16267;DHT22;8241;48.786;9.250;2023-05-10T05:42:02;15.00;99.90
16267;DHT22;8241;48.786;9.250;2023-05-10T05:44:30;15.00;99.90
16267;DHT22;8241;48.786;9.250;2023-05-10T05:46:57;15.10;99.90
16267;DHT22;8241;48.786;9.250;2023-05-10T05:49:27;15.20;99.90
16267;DHT22;8241;48.786;9.250;2023-05-10T05:52:01;15.20;99.90
16267;DHT22;8241;48.786;9.250;2023-05-10T05:54:29;15.20;99.90
16267;DHT22;8241;48.786;9.250;2023-05-10T05:57:01;15.20;99.90
16267;DHT22;8241;48.786;9.250;2023-05-10T05:59:35;15.20;99.90
16267;DHT22;8241;48.786;9.250;2023-05-10T06:02:12;15.10;99.90
16267;DHT22;8241;48.786;9.250;2023-05-10T06:04:39;15.00;99.90
16267;DHT22;8241;48.786;9.250;2023-05-10T06:07:06;15.00;99.90
16267;DHT22;8241;48.786;9.250;2023-05-10T06:09:35;15.10;99.90
16267;DHT22;8241;48.786;9.250;2023-05-10T06:12:03;15.00;99.90
16267;DHT22;8241;48.786;9.250;2023-05-10T06:14:33;15.00;99.90
16267;DHT22;8241;48.786;9.250;2023-05-10T06:17:00;15.10;99.90
16267;DHT22;8241;48.786;9.250;2023-05-10T06:19:35;15.10;99.90
16267;DHT22;8241;48.786;9.250;2023-05-10T06:22:05;15.10;99.90
16267;DHT22;8241;48.786;9.250;2023-05-10T06:24:32;15.20;99.90
16267;DHT22;8241;48.786;9.250;2023-05-10T06:26:59;15.20;99.90
16267;DHT22;8241;48.786;9.250;2023-05-10T06:29:29;15.20;99.90
16267;DHT22;8241;48.786;9.250;2023-05-10T06:31:56;15.30;99.90
16267;DHT22;8241;48.786;9.250;2023-05-10T06:34:24;15.30;99.90
16267;DHT22;8241;48.786;9.250;2023-05-10T06:36:51;15.30;99.90
16267;DHT22;8241;48.786;9.250;2023-05-10T06:39:18;15.20;99.90
16267;DHT22;8241;48.786;9.250;2023-05-10T06:41:54;15.30;99.90
16267;DHT22;8241;48.786;9.250;2023-05-10T06:44:29;15.30;99.90
16267;DHT22;8241;48.786;9.250;2023-05-10T06:46:56;15.20;99.90
16267;DHT22;8241;48.786;9.250;2023-05-10T06:49:23;15.10;99.90
16267;DHT22;8241;48.786;9.250;2023-05-10T06:51:55;15.10;99.90
16267;DHT22;8241;48.786;9.250;2023-05-10T06:54:26;15.10;99.90
16267;DHT22;8241;48.786;9.250;2023-05-10T06:56:53;15.10;99.90
16267;DHT22;8241;48.786;9.250;2023-05-10T06:59:20;15.10;99.90
16267;DHT22;8241;48.786;9.250;2023-05-10T07:01:49;15.10;99.90
16267;DHT22;8241;48.786;9.250;2023-05-10T07:04:23;15.10;99.90
16267;DHT22;8241;48.786;9.250;2023-05-10T07:06:50;15.00;99.90
16267;DHT22;8241;48.786;9.250;2023-05-10T07:09:17;15.00;99.90
16267;DHT22;8241;48.786;9.250;2023-05-10T07:11:44;14.90;99.90
16267;DHT22;8241;48.786;9.250;2023-05-10T07:14:11;15.00;99.90
16267;DHT22;8241;48.786;9.250;2023-05-10T07:16:38;15.10;99.90
16267;DHT22;8241;48.786;9.250;2023-05-10T07:19:07;15.10;99.90
16267;DHT22;8241;48.786;9.250;2023-05-10T07:21:34;15.20;99.90
16267;DHT22;8241;48.786;9.250;2023-05-10T07:24:01;15.30;99.90
16267;DHT22;8241;48.786;9.250;2023-05-10T07:26:29;15.40;99.90
16267;DHT22;8241;48.786;9.250;2023-05-10T07:29:01;15.60;99.90
16267;DHT22;8241;48.786;9.250;2023-05-10T07:31:32;15.80;99.90
16267;DHT22;8241;48.786;9.250;2023-05-10T07:33:59;16.00;99.90
16267;DHT22;8241;48.786;9.250;2023-05-10T07:36:27;16.10;99.90
16267;DHT22;8241;48.786;9.250;2023-05-10T07:38:54;16.30;99.90
16267;DHT22;8241;48.786;9.250;2023-05-10T07:41:23;16.20;99.90
16267;DHT22;8241;48.786;9.250;2023-05-10T07:43:50;16.20;99.90
16267;DHT22;8241;48.786;9.250;2023-05-10T07:46:17;16.20;99.90
16267;DHT22;8241;48.786;9.250;2023-05-10T07:48:48;16.30;99.90
16267;DHT22;8241;48.786;9.250;2023-05-10T07:51:26;16.30;99.90
16267;DHT22;8241;48.786;9.250;2023-05-10T07:53:54;16.30;99.90
16267;DHT22;8241;48.786;9.250;2023-05-10T07:56:23;16.30;99.90
16267;DHT22;8241;48.786;9.250;2023-05-10T07:58:51;16.10;99.90
16267;DHT22;8241;48.786;9.250;2023-05-10T08:01:18;16.10;99.90
16267;DHT22;8241;48.786;9.250;2023-05-10T08:03:45;16.30;99.90
16267;DHT22;8241;48.786;9.250;2023-05-10T08:06:19;16.20;99.90
16267;DHT22;8241;48.786;9.250;2023-05-10T08:08:57;16.30;99.90
16267;DHT22;8241;48.786;9.250;2023-05-10T08:11:24;16.20;99.90
16267;DHT22;8241;48.786;9.250;2023-05-10T08:13:53;16.20;99.90
16267;DHT22;8241;48.786;9.250;2023-05-10T08:16:20;16.30;99.90
16267;DHT22;8241;48.786;9.250;2023-05-10T08:18:48;16.20;99.90
16267;DHT22;8241;48.786;9.250;2023-05-10T08:21:16;16.00;99.90
16267;DHT22;8241;48.786;9.250;2023-05-10T08:23:43;16.00;99.90
16267;DHT22;8241;48.786;9.250;2023-05-10T08:26:11;15.90;99.90
16267;DHT22;8241;48.786;9.250;2023-05-10T08:28:39;15.90;99.90
16267;DHT22;8241;48.786;9.250;2023-05-10T08:31:06;16.00;99.90
16267;DHT22;8241;48.786;9.250;2023-05-10T08:33:33;16.10;99.90
16267;DHT22;8241;48.786;9.250;2023-05-10T08:36:00;16.20;99.90
16267;DHT22;8241;48.786;9.250;2023-05-10T08:38:29;16.30;99.90
16267;DHT22;8241;48.786;9.250;2023-05-10T08:41:00;16.40;99.90
16267;DHT22;8241;48.786;9.250;2023-05-10T08:43:36;16.20;99.90
16267;DHT22;8241;48.786;9.250;2023-05-10T08:46:05;16.30;99.90
16267;DHT22;8241;48.786;9.250;2023-05-10T08:48:34;16.30;99.90
16267;DHT22;8241;48.786;9.250;2023-05-10T08:51:03;16.40;99.90
16267;DHT22;8241;48.786;9.250;2023-05-10T08:53:31;16.30;99.90
16267;DHT22;8241;48.786;9.250;2023-05-10T08:56:04;16.20;99.90
16267;DHT22;8241;48.786;9.250;2023-05-10T08:58:31;16.30;99.90
16267;DHT22;8241;48.786;9.250;2023-05-10T09:01:00;16.30;99.90
16267;DHT22;8241;48.786;9.250;2023-05-10T09:03:28;16.30;99.90
16267;DHT22;8241;48.786;9.250;2023-05-10T09:05:57;16.50;99.90
16267;DHT22;8241;48.786;9.250;2023-05-10T09:08:26;16.70;99.90
16267;DHT22;8241;48.786;9.250;2023-05-10T09:10:54;17.10;99.90
16267;DHT22;8241;48.786;9.250;2023-05-10T09:13:22;17.30;99.90
16267;DHT22;8241;48.786;9.250;2023-05-10T09:15:49;17.40;99.90
16267;DHT22;8241;48.786;9.250;2023-05-10T09:18:19;17.40;99.90
16267;DHT22;8241;48.786;9.250;2023-05-10T09:20:46;17.40;99.90
16267;DHT22;8241;48.786;9.250;2023-05-10T09:23:13;17.50;99.90
16267;DHT22;8241;48.786;9.250;2023-05-10T09:25:41;17.50;99.90
16267;DHT22;8241;48.786;9.250;2023-05-10T09:28:08;17.60;99.90
16267;DHT22;8241;48.786;9.250;2023-05-10T09:30:36;17.70;99.90
16267;DHT22;8241;48.786;9.250;2023-05-10T09:33:04;17.70;99.90
16267;DHT22;8241;48.786;9.250;2023-05-10T09:35:33;17.60;99.80
16267;DHT22;8241;48.786;9.250;2023-05-10T09:38:06;17.40;98.90
16267;DHT22;8241;48.786;9.250;2023-05-10T09:40:40;17.30;99.90
16267;DHT22;8241;48.786;9.250;2023-05-10T09:43:08;17.20;99.90
16267;DHT22;8241;48.786;9.250;2023-05-10T09:45:36;17.10;99.70
16267;DHT22;8241;48.786;9.250;2023-05-10T09:48:04;17.20;99.90
16267;DHT22;8241;48.786;9.250;2023-05-10T09:50:33;17.30;99.80
16267;DHT22;8241;48.786;9.250;2023-05-10T09:53:02;17.40;99.50
16267;DHT22;8241;48.786;9.250;2023-05-10T09:55:39;17.70;99.00
16267;DHT22;8241;48.786;9.250;2023-05-10T09:58:07;18.00;98.90
16267;DHT22;8241;48.786;9.250;2023-05-10T10:00:37;18.10;98.40
16267;DHT22;8241;48.786;9.250;2023-05-10T10:03:13;18.00;98.60
16267;DHT22;8241;48.786;9.250;2023-05-10T10:05:43;18.00;98.70
16267;DHT22;8241;48.786;9.250;2023-05-10T10:08:11;18.10;98.60
16267;DHT22;8241;48.786;9.250;2023-05-10T10:10:39;18.20;98.60
16267;DHT22;8241;48.786;9.250;2023-05-10T10:13:07;18.10;98.20
16267;DHT22;8241;48.786;9.250;2023-05-10T10:15:35;17.90;98.60
16267;DHT22;8241;48.786;9.250;2023-05-10T10:18:02;17.80;98.90
16267;DHT22;8241;48.786;9.250;2023-05-10T10:20:30;17.80;99.20
16267;DHT22;8241;48.786;9.250;2023-05-10T10:22:59;17.50;99.10
16267;DHT22;8241;48.786;9.250;2023-05-10T10:25:26;17.30;99.40
16267;DHT22;8241;48.786;9.250;2023-05-10T10:28:05;17.20;99.40
16267;DHT22;8241;48.786;9.250;2023-05-10T10:30:38;17.10;99.80
16267;DHT22;8241;48.786;9.250;2023-05-10T10:36:12;17.30;99.40
16267;DHT22;8241;48.786;9.250;2023-05-10T10:38:57;17.40;98.80
16267;DHT22;8241;48.786;9.250;2023-05-10T10:41:33;17.50;99.50
16267;DHT22;8241;48.786;9.250;2023-05-10T10:44:34;17.90;99.20
16267;DHT22;8241;48.786;9.250;2023-05-10T10:47:23;18.30;98.60
16267;DHT22;8241;48.786;9.250;2023-05-10T10:49:52;18.60;98.40
16267;DHT22;8241;48.786;9.250;2023-05-10T10:52:34;18.70;98.00
16267;DHT22;8241;48.786;9.250;2023-05-10T10:55:05;18.40;98.10
16267;DHT22;8241;48.786;9.250;2023-05-10T10:57:43;18.20;98.70
16267;DHT22;8241;48.786;9.250;2023-05-10T11:00:25;17.90;99.40
16267;DHT22;8241;48.786;9.250;2023-05-10T11:02:56;17.50;99.40
16267;DHT22;8241;48.786;9.250;2023-05-10T11:05:34;17.30;99.60
16267;DHT22;8241;48.786;9.250;2023-05-10T11:08:14;17.20;99.70
16267;DHT22;8241;48.786;9.250;2023-05-10T11:10:52;17.00;98.80
16267;DHT22;8241;48.786;9.250;2023-05-10T11:13:28;17.00;98.10
16267;DHT22;8241;48.786;9.250;2023-05-10T11:15:56;16.70;96.90
16267;DHT22;8241;48.786;9.250;2023-05-10T11:18:26;16.60;97.20
16267;DHT22;8241;48.786;9.250;2023-05-10T11:20:57;16.60;97.40
16267;DHT22;8241;48.786;9.250;2023-05-10T11:23:29;16.50;96.70
16267;DHT22;8241;48.786;9.250;2023-05-10T11:25:59;16.40;96.40
16267;DHT22;8241;48.786;9.250;2023-05-10T11:28:26;16.30;96.60
16267;DHT22;8241;48.786;9.250;2023-05-10T11:30:54;16.20;96.70
16267;DHT22;8241;48.786;9.250;2023-05-10T11:33:21;16.30;97.20
16267;DHT22;8241;48.786;9.250;2023-05-10T11:35:48;16.40;97.30
16267;DHT22;8241;48.786;9.250;2023-05-10T11:38:15;16.40;97.60
16267;DHT22;8241;48.786;9.250;2023-05-10T11:40:43;16.40;97.30
16267;DHT22;8241;48.786;9.250;2023-05-10T11:43:11;16.50;97.90
16267;DHT22;8241;48.786;9.250;2023-05-10T11:45:41;16.70;97.70
16267;DHT22;8241;48.786;9.250;2023-05-10T11:48:08;16.70;97.20
16267;DHT22;8241;48.786;9.250;2023-05-10T11:50:35;16.80;97.10
16267;DHT22;8241;48.786;9.250;2023-05-10T11:53:02;17.00;97.80
16267;DHT22;8241;48.786;9.250;2023-05-10T11:55:29;17.10;97.80
16267;DHT22;8241;48.786;9.250;2023-05-10T11:58:01;17.10;97.00
16267;DHT22;8241;48.786;9.250;2023-05-10T12:00:30;17.20;96.60
16267;DHT22;8241;48.786;9.250;2023-05-10T12:02:58;17.10;96.60
16267;DHT22;8241;48.786;9.250;2023-05-10T12:05:26;16.90;95.80
16267;DHT22;8241;48.786;9.250;2023-05-10T12:07:53;16.70;96.60
16267;DHT22;8241;48.786;9.250;2023-05-10T12:10:37;16.70;96.90
16267;DHT22;8241;48.786;9.250;2023-05-10T12:13:04;16.50;96.70
16267;DHT22;8241;48.786;9.250;2023-05-10T12:15:34;16.60;97.30
16267;DHT22;8241;48.786;9.250;2023-05-10T12:18:01;16.60;97.10
16267;DHT22;8241;48.786;9.250;2023-05-10T12:20:28;16.70;97.10
16267;DHT22;8241;48.786;9.250;2023-05-10T12:22:57;16.80;97.20
16267;DHT22;8241;48.786;9.250;2023-05-10T12:25:29;16.80;97.00
16267;DHT22;8241;48.786;9.250;2023-05-10T12:27:58;16.70;96.30
16267;DHT22;8241;48.786;9.250;2023-05-10T12:30:28;16.70;96.80
16267;DHT22;8241;48.786;9.250;2023-05-10T12:33:01;16.70;97.00
16267;DHT22;8241;48.786;9.250;2023-05-10T12:35:32;16.80;97.30
16267;DHT22;8241;48.786;9.250;2023-05-10T12:37:59;17.10;96.70
16267;DHT22;8241;48.786;9.250;2023-05-10T12:40:26;17.10;96.40
16267;DHT22;8241;48.786;9.250;2023-05-10T12:42:54;17.30;96.30
16267;DHT22;8241;48.786;9.250;2023-05-10T12:45:21;17.50;96.40
16267;DHT22;8241;48.786;9.250;2023-05-10T12:47:49;17.70;96.50
16267;DHT22;8241;48.786;9.250;2023-05-10T12:50:17;17.80;96.00
16267;DHT22;8241;48.786;9.250;2023-05-10T12:52:44;17.70;95.70
16267;DHT22;8241;48.786;9.250;2023-05-10T12:55:12;17.60;94.80
16267;DHT22;8241;48.786;9.250;2023-05-10T12:57:39;17.50;94.90
16267;DHT22;8241;48.786;9.250;2023-05-10T13:00:07;17.30;94.40
16267;DHT22;8241;48.786;9.250;2023-05-10T13:02:34;17.30;94.90
16267;DHT22;8241;48.786;9.250;2023-05-10T13:05:02;17.30;94.40
16267;DHT22;8241;48.786;9.250;2023-05-10T13:07:30;17.10;94.90
16267;DHT22;8241;48.786;9.250;2023-05-10T13:09:57;17.10;95.30
16267;DHT22;8241;48.786;9.250;2023-05-10T13:12:24;16.90;95.30
16267;DHT22;8241;48.786;9.250;2023-05-10T13:14:51;16.90;95.70
16267;DHT22;8241;48.786;9.250;2023-05-10T13:17:18;16.80;95.60
16267;DHT22;8241;48.786;9.250;2023-05-10T13:19:46;16.70;96.30
16267;DHT22;8241;48.786;9.250;2023-05-10T13:22:13;16.80;96.20
16267;DHT22;8241;48.786;9.250;2023-05-10T13:24:41;16.80;96.60
16267;DHT22;8241;48.786;9.250;2023-05-10T13:27:08;16.80;96.70
16267;DHT22;8241;48.786;9.250;2023-05-10T13:29:35;16.80;96.40
16267;DHT22;8241;48.786;9.250;2023-05-10T13:32:02;16.80;95.90
16267;DHT22;8241;48.786;9.250;2023-05-10T13:34:29;16.80;95.30
16267;DHT22;8241;48.786;9.250;2023-05-10T13:36:57;17.10;95.50
16267;DHT22;8241;48.786;9.250;2023-05-10T13:39:24;17.30;95.60
16267;DHT22;8241;48.786;9.250;2023-05-10T13:41:52;17.50;95.30
16267;DHT22;8241;48.786;9.250;2023-05-10T13:44:20;17.70;95.00
16267;DHT22;8241;48.786;9.250;2023-05-10T13:46:47;17.90;94.20
16267;DHT22;8241;48.786;9.250;2023-05-10T13:49:14;17.80;93.70
16267;DHT22;8241;48.786;9.250;2023-05-10T13:51:42;17.70;93.90
16267;DHT22;8241;48.786;9.250;2023-05-10T13:54:10;17.80;94.30
16267;DHT22;8241;48.786;9.250;2023-05-10T13:56:37;17.80;93.70
16267;DHT22;8241;48.786;9.250;2023-05-10T13:59:05;17.80;93.20
16267;DHT22;8241;48.786;9.250;2023-05-10T14:01:33;17.80;94.20
16267;DHT22;8241;48.786;9.250;2023-05-10T14:04:00;17.80;94.30
16267;DHT22;8241;48.786;9.250;2023-05-10T14:06:27;17.90;94.50
16267;DHT22;8241;48.786;9.250;2023-05-10T14:08:56;18.00;94.20
16267;DHT22;8241;48.786;9.250;2023-05-10T14:11:23;18.00;94.00
16267;DHT22;8241;48.786;9.250;2023-05-10T14:13:50;17.90;93.90
16267;DHT22;8241;48.786;9.250;2023-05-10T14:16:19;17.80;94.30
16267;DHT22;8241;48.786;9.250;2023-05-10T14:18:46;17.90;94.40
16267;DHT22;8241;48.786;9.250;2023-05-10T14:21:13;18.00;93.80
16267;DHT22;8241;48.786;9.250;2023-05-10T14:23:41;18.10;94.20
16267;DHT22;8241;48.786;9.250;2023-05-10T14:26:08;18.20;93.20
16267;DHT22;8241;48.786;9.250;2023-05-10T14:28:35;18.30;92.80
16267;DHT22;8241;48.786;9.250;2023-05-10T14:31:02;18.40;92.70
16267;DHT22;8241;48.786;9.250;2023-05-10T14:33:30;18.10;91.00
16267;DHT22;8241;48.786;9.250;2023-05-10T14:35:57;18.00;90.70
16267;DHT22;8241;48.786;9.250;2023-05-10T14:38:25;18.00;91.20
16267;DHT22;8241;48.786;9.250;2023-05-10T14:40:53;18.00;90.90
16267;DHT22;8241;48.786;9.250;2023-05-10T14:43:20;18.10;91.70
16267;DHT22;8241;48.786;9.250;2023-05-10T14:45:47;18.20;91.80
16267;DHT22;8241;48.786;9.250;2023-05-10T14:48:15;18.30;91.70
16267;DHT22;8241;48.786;9.250;2023-05-10T14:50:45;18.30;91.40
16267;DHT22;8241;48.786;9.250;2023-05-10T14:53:15;18.40;91.50
16267;DHT22;8241;48.786;9.250;2023-05-10T14:55:42;18.30;90.60
16267;DHT22;8241;48.786;9.250;2023-05-10T14:58:09;18.30;91.50
16267;DHT22;8241;48.786;9.250;2023-05-10T15:00:38;18.30;91.60
16267;DHT22;8241;48.786;9.250;2023-05-10T15:03:05;18.30;92.00
16267;DHT22;8241;48.786;9.250;2023-05-10T15:05:32;18.00;91.60
16267;DHT22;8241;48.786;9.250;2023-05-10T15:08:00;17.90;91.80
16267;DHT22;8241;48.786;9.250;2023-05-10T15:10:27;18.10;92.60
16267;DHT22;8241;48.786;9.250;2023-05-10T15:12:54;18.10;92.00
16267;DHT22;8241;48.786;9.250;2023-05-10T15:15:21;18.10;91.50
16267;DHT22;8241;48.786;9.250;2023-05-10T15:17:49;18.10;91.30
16267;DHT22;8241;48.786;9.250;2023-05-10T15:20:16;18.10;91.10
16267;DHT22;8241;48.786;9.250;2023-05-10T15:22:45;18.20;92.20
16267;DHT22;8241;48.786;9.250;2023-05-10T15:25:15;18.20;92.60
16267;DHT22;8241;48.786;9.250;2023-05-10T15:27:42;18.20;92.00
16267;DHT22;8241;48.786;9.250;2023-05-10T15:30:10;18.20;92.40
16267;DHT22;8241;48.786;9.250;2023-05-10T15:32:38;18.10;91.70
16267;DHT22;8241;48.786;9.250;2023-05-10T15:35:07;18.00;92.20
16267;DHT22;8241;48.786;9.250;2023-05-10T15:37:35;18.00;92.60
16267;DHT22;8241;48.786;9.250;2023-05-10T15:40:06;18.00;92.20
16267;DHT22;8241;48.786;9.250;2023-05-10T15:42:37;18.00;92.50
16267;DHT22;8241;48.786;9.250;2023-05-10T15:45:07;18.00;92.40
16267;DHT22;8241;48.786;9.250;2023-05-10T15:47:34;18.10;92.10
16267;DHT22;8241;48.786;9.250;2023-05-10T15:50:01;18.10;92.50
16267;DHT22;8241;48.786;9.250;2023-05-10T15:52:32;18.10;92.00
16267;DHT22;8241;48.786;9.250;2023-05-10T15:54:59;18.10;91.60
16267;DHT22;8241;48.786;9.250;2023-05-10T15:57:26;18.00;92.30
16267;DHT22;8241;48.786;9.250;2023-05-10T15:59:54;18.00;91.60
16267;DHT22;8241;48.786;9.250;2023-05-10T16:02:22;18.00;93.00
16267;DHT22;8241;48.786;9.250;2023-05-10T16:04:49;18.00;92.60
16267;DHT22;8241;48.786;9.250;2023-05-10T16:07:16;17.90;92.50
16267;DHT22;8241;48.786;9.250;2023-05-10T16:09:43;17.90;93.20
16267;DHT22;8241;48.786;9.250;2023-05-10T16:12:11;17.90;93.40
16267;DHT22;8241;48.786;9.250;2023-05-10T16:14:38;17.80;92.70
16267;DHT22;8241;48.786;9.250;2023-05-10T16:17:06;17.80;92.80